Time;durP1;ratioP1;P1;durP2;ratioP2;P2;SDS_P1;SDS_P2;PMS_P1;PMS_P2;Temp;Humidity;BMP_temperature;BMP_pressure;BME280_temperature;BME280_humidity;BME280_pressure;Samples;Min_cycle;Max_cycle;Signal;HPM_P1;HPM_P2
2022/11/15 00:00:49;;;;;;;20.30;14.98;;;12.80;99.90;;;;;;4975997;28;20169;-83
2022/11/15 00:03:20;;;;;;;29.83;15.55;;;12.80;99.90;;;;;;4977239;28;20631;-82
2022/11/15 00:05:46;;;;;;;30.30;15.63;;;12.80;99.90;;;;;;4975980;28;20578;-82
2022/11/15 00:08:12;;;;;;;19.08;14.45;;;12.90;99.90;;;;;;4958727;28;20670;-84
2022/11/15 00:10:38;;;;;;;20.30;14.45;;;12.80;99.90;;;;;;4975873;28;20177;-82
2022/11/15 00:13:08;;;;;;;21.60;15.05;;;12.90;99.90;;;;;;4958248;28;20172;-83
2022/11/15 00:15:38;;;;;;;29.15;15.52;;;12.80;99.90;;;;;;4976185;28;20166;-83
2022/11/15 00:18:05;;;;;;;22.27;15.82;;;12.80;99.90;;;;;;4958696;28;20229;-84
2022/11/15 00:20:33;;;;;;;21.95;14.93;;;12.70;99.90;;;;;;4980830;28;20186;-82
2022/11/15 00:22:59;;;;;;;25.50;15.68;;;12.80;99.90;;;;;;4970504;28;20312;-81
2022/11/15 00:25:25;;;;;;;24.38;16.10;;;12.90;99.90;;;;;;4998960;28;20213;-81
2022/11/15 00:27:51;;;;;;;26.27;16.30;;;12.70;99.90;;;;;;4965599;28;20181;-81
2022/11/15 00:30:17;;;;;;;23.38;15.73;;;12.50;99.90;;;;;;4975842;28;20647;-82
2022/11/15 00:32:42;;;;;;;21.45;14.82;;;12.50;99.90;;;;;;4975415;28;20172;-82
2022/11/15 00:35:08;;;;;;;23.98;14.80;;;12.60;99.90;;;;;;4975737;28;20168;-83
2022/11/15 00:37:34;;;;;;;22.50;15.30;;;12.70;99.90;;;;;;4975292;28;20244;-83
2022/11/15 00:39:59;;;;;;;22.25;15.52;;;12.70;99.90;;;;;;4975170;28;20186;-84
2022/11/15 00:42:25;;;;;;;25.67;16.20;;;12.80;99.90;;;;;;4975227;28;20202;-83
2022/11/15 00:44:50;;;;;;;21.63;16.73;;;12.80;99.90;;;;;;4957495;28;20218;-84
2022/11/15 00:47:16;;;;;;;24.60;16.17;;;12.80;99.90;;;;;;4974999;28;20240;-82
2022/11/15 00:49:42;;;;;;;24.00;15.75;;;12.90;99.90;;;;;;4974774;28;20281;-80
2022/11/15 00:52:08;;;;;;;22.00;15.82;;;12.90;99.90;;;;;;4974968;28;20181;-82
2022/11/15 00:54:34;;;;;;;24.90;16.23;;;12.90;99.90;;;;;;4975004;28;20173;-83
2022/11/15 00:56:59;;;;;;;22.00;15.40;;;13.00;99.90;;;;;;4974836;28;20170;-84
2022/11/15 00:59:25;;;;;;;25.75;15.30;;;12.90;99.90;;;;;;4974961;28;20201;-80
2022/11/15 01:01:50;;;;;;;19.98;15.15;;;13.10;99.90;;;;;;4974826;28;20182;-83
2022/11/15 01:04:16;;;;;;;22.23;14.75;;;13.10;99.90;;;;;;4974687;28;20213;-83
2022/11/15 01:06:42;;;;;;;25.88;15.23;;;13.10;99.90;;;;;;4957809;28;20178;-81
2022/11/15 01:09:07;;;;;;;20.85;15.35;;;13.20;99.90;;;;;;4974537;28;20185;-81
2022/11/15 01:11:33;;;;;;;25.30;15.48;;;13.30;99.90;;;;;;4974519;28;20184;-81
2022/11/15 01:13:58;;;;;;;26.77;16.38;;;13.30;99.90;;;;;;4973573;28;20177;-83
2022/11/15 01:16:24;;;;;;;25.27;16.02;;;13.30;99.90;;;;;;4974649;28;20165;-82
2022/11/15 01:18:50;;;;;;;21.60;15.98;;;13.40;99.90;;;;;;4974286;28;20252;-81
2022/11/15 01:21:18;;;;;;;35.35;16.33;;;13.30;99.90;;;;;;4974508;28;20216;-82
2022/11/15 01:23:44;;;;;;;23.27;17.58;;;13.20;99.90;;;;;;4975564;28;20264;-81
2022/11/15 01:26:12;;;;;;;26.90;17.73;;;13.30;99.90;;;;;;4975240;28;20252;-81
2022/11/15 01:28:40;;;;;;;19.50;15.90;;;13.30;99.90;;;;;;4956867;28;20557;-82
2022/11/15 01:31:19;;;;;;;31.98;18.90;;;13.20;99.90;;;;;;4975441;28;20627;-83
2022/11/15 01:33:46;;;;;;;21.70;16.77;;;13.10;99.90;;;;;;4971380;28;20684;-81
2022/11/15 01:36:17;;;;;;;27.63;16.20;;;13.10;99.90;;;;;;4974142;28;20170;-82
2022/11/15 01:38:43;;;;;;;23.25;16.45;;;13.20;99.90;;;;;;4973956;28;20189;-81
2022/11/15 01:41:17;;;;;;;21.92;15.88;;;13.20;99.90;;;;;;4974215;28;20224;-82
2022/11/15 01:43:43;;;;;;;24.20;15.15;;;13.30;99.90;;;;;;4974204;28;20206;-81
2022/11/15 01:46:21;;;;;;;18.75;15.15;;;13.20;99.90;;;;;;4956522;28;20264;-81
2022/11/15 01:48:49;;;;;;;28.38;16.35;;;13.50;99.90;;;;;;4956353;28;20198;-81
2022/11/15 01:51:17;;;;;;;28.15;14.80;;;13.50;99.90;;;;;;4974085;28;20257;-80
2022/11/15 01:53:46;;;;;;;24.38;15.00;;;13.40;99.90;;;;;;4973886;28;20181;-81
2022/11/15 01:56:25;;;;;;;24.65;15.00;;;13.50;99.90;;;;;;4973876;28;20201;-81
2022/11/15 01:58:52;;;;;;;24.67;15.00;;;13.30;99.90;;;;;;4973811;28;20230;-81
2022/11/15 02:01:17;;;;;;;24.98;14.93;;;13.40;99.90;;;;;;4972464;28;20174;-81
2022/11/15 02:03:51;;;;;;;17.05;13.15;;;13.10;99.90;;;;;;4973902;28;21446;-81
2022/11/15 02:06:18;;;;;;;17.85;13.55;;;13.30;99.90;;;;;;4973976;28;20537;-81
2022/11/15 02:08:44;;;;;;;21.95;15.07;;;13.10;99.90;;;;;;4956565;28;20539;-81
2022/11/15 02:11:10;;;;;;;21.45;14.32;;;13.10;99.90;;;;;;4956308;28;20631;-81
2022/11/15 02:13:36;;;;;;;15.20;13.25;;;13.10;99.90;;;;;;4973577;28;20256;-80
2022/11/15 02:16:05;;;;;;;16.17;12.30;;;13.20;99.90;;;;;;4973982;28;20240;-81
2022/11/15 02:18:37;;;;;;;17.08;12.88;;;13.00;99.90;;;;;;4973478;28;20190;-81
2022/11/15 02:21:11;;;;;;;20.73;12.57;;;13.10;99.90;;;;;;4956491;28;20197;-81
2022/11/15 02:23:55;;;;;;;20.42;12.85;;;13.00;99.90;;;;;;4956197;28;20387;-80
2022/11/15 02:26:39;;;;;;;15.82;13.13;;;13.00;99.90;;;;;;4973437;28;20205;-81
2022/11/15 02:29:31;;;;;;;18.73;13.18;;;13.00;99.90;;;;;;4973416;28;20209;-81
2022/11/15 02:32:06;;;;;;;16.58;13.00;;;13.00;99.90;;;;;;4973521;28;20686;-80
2022/11/15 02:34:54;;;;;;;16.98;13.30;;;13.00;99.90;;;;;;4973359;28;20224;-80
2022/11/15 02:37:44;;;;;;;23.08;14.63;;;13.00;99.90;;;;;;4956151;28;20170;-80
2022/11/15 02:40:31;;;;;;;20.08;13.50;;;13.20;99.90;;;;;;4973466;28;20166;-81
2022/11/15 02:46:01;;;;;;;18.52;12.80;;;13.10;99.90;;;;;;4977308;28;20241;-84
2022/11/15 02:48:28;;;;;;;15.27;12.55;;;13.20;99.90;;;;;;4959611;28;20670;-80
2022/11/15 02:50:54;;;;;;;18.02;12.38;;;13.30;99.90;;;;;;4959626;28;20176;-81
2022/11/15 02:53:25;;;;;;;21.25;13.00;;;13.30;99.90;;;;;;4980274;28;20170;-82
2022/11/15 02:56:14;;;;;;;19.67;12.70;;;13.20;99.90;;;;;;4974487;28;20154;-82
2022/11/15 02:58:50;;;;;;;12.88;11.13;;;13.30;99.90;;;;;;4978875;28;20190;-81
2022/11/15 03:01:45;;;;;;;17.80;11.85;;;13.30;99.90;;;;;;4960762;28;20541;-80
2022/11/15 03:04:43;;;;;;;14.10;11.32;;;13.30;99.90;;;;;;4940795;28;20227;-80
2022/11/15 03:07:50;;;;;;;12.68;11.40;;;13.40;99.90;;;;;;4974823;28;20244;-80
2022/11/15 03:10:46;;;;;;;17.35;11.23;;;13.50;99.90;;;;;;4970073;28;20185;-80
2022/11/15 03:13:26;;;;;;;15.75;10.57;;;13.60;99.90;;;;;;4976831;28;20197;-79
2022/11/15 03:16:02;;;;;;;13.38;10.18;;;13.50;99.90;;;;;;4976324;28;20166;-81
2022/11/15 03:18:52;;;;;;;13.88;10.90;;;13.30;99.90;;;;;;4976466;28;20197;-80
2022/11/15 03:21:20;;;;;;;44.28;11.57;;;13.30;99.90;;;;;;4976281;28;20173;-79
2022/11/15 03:23:48;;;;;;;13.07;10.43;;;13.40;99.90;;;;;;4958749;28;20198;-80
2022/11/15 03:26:16;;;;;;;20.30;10.25;;;13.20;99.90;;;;;;4958659;28;20650;-79
2022/11/15 03:28:54;;;;;;;17.75;9.05;;;13.20;99.90;;;;;;4976211;28;20321;-79
2022/11/15 03:34:10;;;;;;;12.93;7.82;;;13.20;99.90;;;;;;4976339;28;20709;-80
2022/11/15 03:36:37;;;;;;;13.38;8.57;;;13.20;99.90;;;;;;4976279;28;20170;-79
2022/11/15 03:39:07;;;;;;;10.85;6.38;;;13.10;99.90;;;;;;4974965;28;20296;-79
2022/11/15 03:41:47;;;;;;;12.23;8.43;;;13.00;99.90;;;;;;4976254;28;20178;-79
2022/11/15 03:44:41;;;;;;;8.88;7.57;;;12.90;99.90;;;;;;4975883;28;20216;-80
2022/11/15 03:47:32;;;;;;;14.25;7.47;;;12.90;99.90;;;;;;4976175;28;20179;-79
2022/11/15 03:50:02;;;;;;;11.90;7.57;;;12.90;99.90;;;;;;4965435;28;20198;-79
2022/11/15 03:52:33;;;;;;;13.80;7.10;;;12.90;99.90;;;;;;4975737;28;20232;-79
2022/11/15 03:55:01;;;;;;;15.10;7.57;;;13.00;99.90;;;;;;4974751;28;20525;-78
2022/11/15 03:57:27;;;;;;;11.15;8.07;;;13.10;99.90;;;;;;4974503;28;20177;-80
2022/11/15 03:59:52;;;;;;;11.40;8.40;;;13.00;99.90;;;;;;4975661;28;20194;-80
2022/11/15 04:02:18;;;;;;;8.98;6.60;;;12.80;99.90;;;;;;4975498;28;20162;-80
2022/11/15 04:04:44;;;;;;;8.65;6.65;;;12.80;99.90;;;;;;4975017;28;20728;-80
2022/11/15 04:07:09;;;;;;;13.30;6.88;;;12.80;99.90;;;;;;4975565;28;20694;-81
2022/11/15 04:10:01;;;;;;;6.00;5.22;;;12.80;99.90;;;;;;4975645;28;20194;-84
2022/11/15 04:12:33;;;;;;;11.52;6.65;;;12.90;99.90;;;;;;4975370;28;20188;-80
2022/11/15 04:15:09;;;;;;;7.25;5.93;;;12.90;99.90;;;;;;4974028;28;20205;-80
2022/11/15 04:17:41;;;;;;;6.28;5.68;;;12.90;99.90;;;;;;4975206;28;20253;-81
2022/11/15 04:25:40;;;;;;;10.30;6.70;;;12.80;99.90;;;;;;4975158;28;20240;-81
2022/11/15 04:28:06;;;;;;;10.98;6.63;;;13.00;99.90;;;;;;4973795;28;20753;-80
2022/11/15 04:30:32;;;;;;;11.98;7.10;;;13.00;99.90;;;;;;4975156;28;20213;-80
2022/11/15 04:32:57;;;;;;;12.90;6.15;;;13.00;99.90;;;;;;4975300;28;20172;-81
2022/11/15 04:35:23;;;;;;;8.15;6.47;;;12.90;99.90;;;;;;4975118;28;20185;-81
2022/11/15 04:37:49;;;;;;;9.02;5.75;;;12.90;99.90;;;;;;4974928;28;20194;-80
2022/11/15 04:40:14;;;;;;;14.68;5.57;;;12.80;99.90;;;;;;4974895;28;20174;-79
2022/11/15 04:42:42;;;;;;;18.33;5.95;;;12.70;99.90;;;;;;4973074;28;20170;-81
2022/11/15 04:45:09;;;;;;;7.00;5.28;;;12.60;99.90;;;;;;4974585;28;20267;-81
2022/11/15 04:47:35;;;;;;;10.13;5.30;;;12.60;99.90;;;;;;4973476;28;20589;-80
2022/11/15 04:50:00;;;;;;;8.93;5.03;;;12.60;99.90;;;;;;4973227;28;20236;-80
2022/11/15 04:52:26;;;;;;;8.93;5.20;;;12.60;99.90;;;;;;4974725;28;20254;-80
2022/11/15 04:54:51;;;;;;;8.20;4.70;;;12.60;99.90;;;;;;4974638;28;20177;-80
2022/11/15 04:57:17;;;;;;;8.63;5.55;;;12.60;99.90;;;;;;4975678;28;20208;-81
2022/11/15 04:59:43;;;;;;;13.75;4.93;;;12.60;99.90;;;;;;4973331;28;20212;-81
2022/11/15 05:02:09;;;;;;;8.13;4.75;;;12.50;99.90;;;;;;4974592;28;20177;-81
2022/11/15 05:04:34;;;;;;;11.25;4.20;;;12.30;99.90;;;;;;4974387;28;20213;-81
2022/11/15 05:07:00;;;;;;;9.15;4.90;;;12.20;99.90;;;;;;4973939;28;20166;-81
2022/11/15 05:09:26;;;;;;;12.25;5.13;;;12.20;99.90;;;;;;4974277;28;20221;-84
2022/11/15 05:11:51;;;;;;;6.43;4.43;;;12.20;99.90;;;;;;4974648;28;20166;-81
2022/11/15 05:14:17;;;;;;;8.25;4.32;;;12.10;99.90;;;;;;4974940;28;20168;-84
2022/11/15 05:16:43;;;;;;;6.15;4.93;;;12.10;99.90;;;;;;4975053;28;20166;-82
2022/11/15 05:19:08;;;;;;;5.00;4.40;;;12.20;99.90;;;;;;4974474;28;20190;-83
2022/11/15 05:21:35;;;;;;;6.43;5.68;;;12.10;99.90;;;;;;4974650;28;20209;-81
2022/11/15 05:24:02;;;;;;;5.63;4.80;;;12.10;99.90;;;;;;4973755;28;20296;-81
2022/11/15 05:26:28;;;;;;;5.40;4.35;;;12.10;99.90;;;;;;4979002;28;20177;-83
2022/11/15 05:28:55;;;;;;;5.95;4.53;;;12.10;99.90;;;;;;4992569;28;20194;-82
2022/11/15 05:31:21;;;;;;;9.02;4.25;;;12.20;99.90;;;;;;4992098;28;20186;-80
2022/11/15 05:33:47;;;;;;;6.22;4.80;;;12.00;99.90;;;;;;4974907;28;20194;-83
2022/11/15 05:36:35;;;;;;;8.32;4.72;;;12.00;99.90;;;;;;4973246;28;20263;-81
2022/11/15 05:39:02;;;;;;;11.52;4.25;;;12.00;99.90;;;;;;4974424;28;20190;-80
2022/11/15 05:41:41;;;;;;;13.10;4.57;;;11.90;99.90;;;;;;4973059;28;20173;-81
2022/11/15 05:44:10;;;;;;;7.13;5.13;;;12.10;99.90;;;;;;4973927;28;20605;-84
2022/11/15 05:46:39;;;;;;;10.70;4.93;;;12.10;99.90;;;;;;4974503;28;20201;-81
2022/11/15 05:49:10;;;;;;;15.85;4.78;;;12.10;99.90;;;;;;4973824;28;20269;-79
2022/11/15 05:51:36;;;;;;;8.75;4.80;;;11.90;99.90;;;;;;4973674;28;20166;-80
2022/11/15 05:54:02;;;;;;;11.18;4.43;;;11.80;99.90;;;;;;4972320;28;20196;-80
2022/11/15 05:56:29;;;;;;;9.45;4.32;;;11.70;99.90;;;;;;4972297;28;20519;-80
2022/11/15 05:58:56;;;;;;;11.30;3.92;;;11.70;99.90;;;;;;4973517;28;20194;-80
2022/11/15 06:01:22;;;;;;;9.60;4.03;;;11.60;99.90;;;;;;4973598;28;20216;-80
2022/11/15 06:03:48;;;;;;;8.77;4.07;;;11.60;99.90;;;;;;4972073;28;20190;-80
2022/11/15 06:06:14;;;;;;;8.82;4.80;;;11.70;99.90;;;;;;4974408;28;20176;-82
2022/11/15 06:08:39;;;;;;;4.40;4.03;;;11.50;99.90;;;;;;4973249;28;20185;-81
2022/11/15 06:11:06;;;;;;;7.47;3.65;;;11.40;99.90;;;;;;4974312;28;20533;-81
2022/11/15 06:13:32;;;;;;;7.82;3.90;;;11.40;99.90;;;;;;4972551;28;20193;-80
2022/11/15 06:15:58;;;;;;;7.38;3.95;;;11.20;99.90;;;;;;4974337;28;20169;-84
2022/11/15 06:18:24;;;;;;;8.90;4.80;;;11.10;99.90;;;;;;4974289;28;20186;-82
2022/11/15 06:20:50;;;;;;;12.10;4.30;;;11.20;99.90;;;;;;4977838;28;20224;-85
2022/11/15 06:23:15;;;;;;;7.13;4.10;;;11.30;99.90;;;;;;4977877;28;20273;-82
2022/11/15 06:25:41;;;;;;;7.40;3.15;;;11.20;99.90;;;;;;4976507;28;20262;-81
2022/11/15 06:28:06;;;;;;;10.77;3.55;;;11.10;99.90;;;;;;4977347;28;20178;-82
2022/11/15 06:30:32;;;;;;;9.50;3.80;;;11.00;99.90;;;;;;4976189;28;20506;-83
2022/11/15 06:33:03;;;;;;;7.13;3.60;;;11.00;99.90;;;;;;4976150;28;20192;-83
2022/11/15 06:35:30;;;;;;;8.00;3.80;;;11.10;99.90;;;;;;4976023;28;20178;-80
2022/11/15 06:38:03;;;;;;;9.15;3.83;;;11.10;99.90;;;;;;4976943;28;20177;-80
2022/11/15 06:40:28;;;;;;;8.88;4.40;;;11.10;99.90;;;;;;4976158;28;20520;-80
2022/11/15 06:42:59;;;;;;;5.90;3.97;;;11.30;99.90;;;;;;4975674;28;20193;-81
2022/11/15 06:45:25;;;;;;;7.72;3.75;;;11.20;99.90;;;;;;4976859;28;20205;-80
2022/11/15 06:47:50;;;;;;;12.85;4.45;;;11.30;99.90;;;;;;4976903;28;20192;-80
2022/11/15 06:50:16;;;;;;;8.20;5.32;;;11.30;99.90;;;;;;4976888;28;20634;-80
2022/11/15 06:52:41;;;;;;;9.35;3.63;;;11.20;99.90;;;;;;4976788;28;20185;-80
2022/11/15 06:55:08;;;;;;;10.93;3.72;;;11.10;99.90;;;;;;4976645;28;20296;-80
2022/11/15 06:57:34;;;;;;;8.35;4.72;;;11.10;99.90;;;;;;4976333;28;20174;-80
2022/11/15 06:59:59;;;;;;;15.10;4.38;;;11.20;99.90;;;;;;4975472;28;20196;-80
2022/11/15 07:02:25;;;;;;;5.05;4.30;;;11.20;99.90;;;;;;4975352;28;20626;-80
2022/11/15 07:04:52;;;;;;;10.52;4.68;;;11.20;99.90;;;;;;4985069;28;20202;-81
2022/11/15 07:07:18;;;;;;;10.02;4.50;;;11.20;99.90;;;;;;4976171;28;20166;-82
2022/11/15 07:09:43;;;;;;;8.07;4.03;;;11.30;99.90;;;;;;4977172;28;20526;-81
2022/11/15 07:12:09;;;;;;;4.70;4.25;;;11.20;99.90;;;;;;4977357;28;20181;-82
2022/11/15 07:14:34;;;;;;;10.65;4.95;;;11.10;99.90;;;;;;4975214;28;20554;-80
2022/11/15 07:17:03;;;;;;;9.38;4.22;;;11.20;99.90;;;;;;4975526;28;20173;-82
2022/11/15 07:19:29;;;;;;;11.77;4.57;;;11.10;99.90;;;;;;4976653;28;20205;-81
2022/11/15 07:21:54;;;;;;;8.68;4.18;;;11.10;99.90;;;;;;4986123;28;20158;-82
2022/11/15 07:24:20;;;;;;;11.80;3.83;;;11.10;99.90;;;;;;4981381;28;20329;-81
2022/11/15 07:26:45;;;;;;;6.85;3.88;;;11.10;99.90;;;;;;4976230;28;20204;-85
2022/11/15 07:29:11;;;;;;;6.78;3.63;;;11.10;99.90;;;;;;4976086;28;20213;-85
2022/11/15 07:31:38;;;;;;;16.15;3.83;;;11.10;99.90;;;;;;4985910;28;20258;-84
2022/11/15 07:34:04;;;;;;;6.47;3.30;;;11.10;99.90;;;;;;4973843;28;20174;-82
2022/11/15 07:36:30;;;;;;;12.93;3.83;;;11.10;99.90;;;;;;4976802;28;20649;-83
2022/11/15 07:38:55;;;;;;;7.75;3.97;;;11.00;99.90;;;;;;4976474;28;20197;-83
2022/11/15 07:41:21;;;;;;;12.43;4.90;;;11.10;99.90;;;;;;4976192;28;20548;-84
2022/11/15 07:43:46;;;;;;;10.43;3.72;;;11.10;99.90;;;;;;4976505;28;20488;-84
2022/11/15 07:46:12;;;;;;;10.45;3.78;;;11.10;99.90;;;;;;4975338;28;20177;-81
2022/11/15 07:48:40;;;;;;;8.32;3.58;;;11.10;99.90;;;;;;4978072;28;20185;-81
2022/11/15 07:51:06;;;;;;;8.80;3.25;;;11.00;99.90;;;;;;4977091;28;20242;-81
2022/11/15 07:53:32;;;;;;;5.20;3.90;;;10.90;99.90;;;;;;4975210;28;20162;-80
2022/11/15 07:55:58;;;;;;;12.80;3.15;;;11.00;99.90;;;;;;4975839;28;20579;-81
2022/11/15 07:58:23;;;;;;;8.88;3.58;;;10.90;99.90;;;;;;4975520;28;20548;-81
2022/11/15 08:00:49;;;;;;;11.18;3.85;;;10.90;99.90;;;;;;4976264;28;20518;-81
2022/11/15 08:03:16;;;;;;;5.35;3.47;;;10.90;99.90;;;;;;4988423;28;20198;-80
2022/11/15 08:05:43;;;;;;;5.55;3.38;;;10.80;99.90;;;;;;4985042;28;20670;-83
2022/11/15 08:08:10;;;;;;;29.73;4.82;;;11.00;99.90;;;;;;4976298;28;20389;-82
2022/11/15 08:10:37;;;;;;;11.77;3.22;;;11.10;99.90;;;;;;4975622;28;20182;-82
2022/11/15 08:13:05;;;;;;;6.10;2.45;;;11.20;99.90;;;;;;4975409;28;20628;-80
2022/11/15 08:15:32;;;;;;;12.38;3.47;;;11.10;99.90;;;;;;4975385;28;20158;-81
2022/11/15 08:18:02;;;;;;;4.50;2.85;;;11.00;99.90;;;;;;4975616;28;20196;-83
2022/11/15 08:20:29;;;;;;;9.98;2.78;;;11.10;99.90;;;;;;4975187;28;20166;-84
2022/11/15 08:22:59;;;;;;;5.57;2.45;;;11.10;99.90;;;;;;4977539;28;20241;-85
2022/11/15 08:25:26;;;;;;;11.07;2.85;;;11.30;99.90;;;;;;4980309;28;20272;-81
2022/11/15 08:27:54;;;;;;;4.05;2.08;;;11.20;99.90;;;;;;4986723;28;20182;-84
2022/11/15 08:30:19;;;;;;;7.15;2.30;;;11.30;99.90;;;;;;4997054;28;20255;-84
2022/11/15 08:32:45;;;;;;;4.20;2.17;;;11.30;99.90;;;;;;4968693;28;20229;-83
2022/11/15 08:35:11;;;;;;;6.68;2.28;;;11.40;99.90;;;;;;4974755;28;20625;-83
2022/11/15 08:37:36;;;;;;;5.50;2.85;;;11.30;99.90;;;;;;4990913;28;20188;-82
2022/11/15 08:40:03;;;;;;;2.55;2.00;;;11.30;99.90;;;;;;4986886;28;20263;-81
2022/11/15 08:42:29;;;;;;;5.80;1.83;;;11.40;99.90;;;;;;4976193;28;20154;-82
2022/11/15 08:44:54;;;;;;;6.78;1.88;;;11.50;99.90;;;;;;4995587;28;20216;-84
2022/11/15 08:47:21;;;;;;;6.85;1.92;;;11.50;99.90;;;;;;4997869;28;20185;-82
2022/11/15 08:49:47;;;;;;;3.22;1.88;;;11.60;99.90;;;;;;4998998;28;20197;-81
2022/11/15 08:52:14;;;;;;;4.25;2.15;;;11.60;99.90;;;;;;5011388;28;20189;-82
2022/11/15 08:54:39;;;;;;;3.40;1.92;;;11.40;99.90;;;;;;4988077;28;20198;-80
2022/11/15 08:57:05;;;;;;;6.88;2.25;;;11.50;99.90;;;;;;5011733;28;20181;-81
2022/11/15 08:59:31;;;;;;;3.75;1.98;;;11.60;99.90;;;;;;4986800;28;20198;-84
2022/11/15 09:01:56;;;;;;;8.93;2.88;;;11.60;99.90;;;;;;4985428;28;20218;-84
2022/11/15 09:04:22;;;;;;;6.25;1.85;;;11.60;99.90;;;;;;4971268;28;20197;-86
2022/11/15 09:06:47;;;;;;;3.30;2.25;;;11.50;99.90;;;;;;4982613;28;20241;-84
2022/11/15 09:09:13;;;;;;;8.38;1.85;;;11.50;99.90;;;;;;4971680;28;20232;-86
2022/11/15 09:11:38;;;;;;;5.43;2.35;;;11.50;99.90;;;;;;4975066;28;20189;-82
2022/11/15 09:14:04;;;;;;;8.85;1.55;;;11.70;99.90;;;;;;4979160;28;20533;-84
2022/11/15 09:16:31;;;;;;;5.10;1.98;;;11.80;99.90;;;;;;4981683;28;20586;-83
2022/11/15 09:18:56;;;;;;;13.35;2.10;;;11.70;99.90;;;;;;4988367;28;20177;-84
2022/11/15 09:21:22;;;;;;;7.78;1.88;;;11.70;99.90;;;;;;5006081;28;20288;-84
2022/11/15 09:23:51;;;;;;;4.22;1.67;;;11.90;99.90;;;;;;4984168;28;20209;-82
2022/11/15 09:26:17;;;;;;;9.90;1.95;;;11.90;99.90;;;;;;4981578;28;20713;-83
2022/11/15 09:28:43;;;;;;;4.43;1.65;;;12.00;99.90;;;;;;4975568;28;20189;-82
2022/11/15 09:31:09;;;;;;;9.98;2.60;;;11.80;99.90;;;;;;4973334;28;20186;-84
2022/11/15 09:33:35;;;;;;;7.82;1.45;;;11.80;99.90;;;;;;4961824;28;20177;-84
2022/11/15 09:36:03;;;;;;;8.00;1.58;;;11.90;99.90;;;;;;4974516;28;20182;-81
2022/11/15 09:38:29;;;;;;;3.53;1.80;;;12.10;99.90;;;;;;4966538;28;20189;-80
2022/11/15 09:41:06;;;;;;;5.93;1.50;;;12.30;99.90;;;;;;4992714;28;20574;-82
2022/11/15 09:43:44;;;;;;;6.07;1.60;;;12.40;99.90;;;;;;4992169;28;20204;-79
2022/11/15 09:46:44;;;;;;;9.10;1.75;;;12.50;99.90;;;;;;4974510;28;20553;-81
2022/11/15 09:49:14;;;;;;;6.38;1.52;;;12.50;99.90;;;;;;4992238;28;20195;-82
2022/11/15 09:51:49;;;;;;;6.53;1.60;;;12.50;99.90;;;;;;4974089;28;20188;-82
2022/11/15 09:54:43;;;;;;;4.72;1.85;;;12.30;99.90;;;;;;4972574;28;20169;-82
2022/11/15 09:57:08;;;;;;;11.55;2.10;;;12.40;99.90;;;;;;4965832;28;20526;-82
2022/11/15 09:59:51;;;;;;;7.03;1.63;;;12.40;99.90;;;;;;4985146;28;20252;-82
2022/11/15 10:02:34;;;;;;;10.93;1.67;;;12.50;99.90;;;;;;4986047;28;20276;-80
2022/11/15 10:05:01;;;;;;;3.55;1.45;;;12.50;99.90;;;;;;4990888;28;20213;-81
2022/11/15 10:08:05;;;;;;;5.75;1.75;;;12.50;99.90;;;;;;4961768;28;20170;-83
2022/11/15 10:10:41;;;;;;;12.45;1.83;;;12.60;99.90;;;;;;4967949;28;20176;-83
2022/11/15 10:13:19;;;;;;;12.25;1.30;;;12.70;99.90;;;;;;4970580;28;20165;-86
2022/11/15 10:15:48;;;;;;;15.63;1.60;;;12.60;99.90;;;;;;4974911;28;20191;-86
2022/11/15 10:18:34;;;;;;;17.23;1.90;;;12.60;99.90;;;;;;4961858;28;20193;-83
2022/11/15 10:21:20;;;;;;;5.00;1.67;;;12.80;99.90;;;;;;4990486;28;20275;-85
2022/11/15 10:23:46;;;;;;;12.25;1.90;;;12.90;99.90;;;;;;4982390;28;20268;-85
2022/11/15 10:26:17;;;;;;;5.72;1.45;;;13.10;99.90;;;;;;4992451;28;20246;-81
2022/11/15 10:28:43;;;;;;;5.30;1.20;;;13.10;99.90;;;;;;4992078;28;20653;-84
2022/11/15 10:31:26;;;;;;;5.57;1.38;;;13.00;99.90;;;;;;4992952;28;20179;-80
2022/11/15 10:34:16;;;;;;;8.27;1.80;;;13.00;99.90;;;;;;4994500;28;20172;-81
2022/11/15 10:36:54;;;;;;;13.98;2.13;;;13.00;99.90;;;;;;5001480;28;20689;-80
2022/11/15 10:39:20;;;;;;;11.68;1.60;;;13.00;99.90;;;;;;5002874;28;20204;-81
2022/11/15 10:41:46;;;;;;;6.55;1.48;;;13.00;99.90;;;;;;4979935;28;20243;-81
2022/11/15 10:44:24;;;;;;;3.72;1.58;;;13.10;99.90;;;;;;4993287;28;20209;-84
2022/11/15 10:47:22;;;;;;;4.10;1.42;;;13.20;99.90;;;;;;4975241;28;20198;-84
2022/11/15 10:50:26;;;;;;;10.65;1.80;;;13.30;99.90;;;;;;4986585;28;20550;-81
2022/11/15 10:52:52;;;;;;;2.88;1.10;;;13.30;99.90;;;;;;4992636;28;20537;-84
2022/11/15 10:55:17;;;;;;;6.85;1.45;;;13.40;99.90;;;;;;4992667;28;20653;-81
2022/11/15 10:57:53;;;;;;;6.45;1.33;;;13.50;99.90;;;;;;4993248;28;20169;-82
2022/11/15 11:00:19;;;;;;;8.80;2.00;;;13.60;99.90;;;;;;4976049;28;20169;-83
2022/11/15 11:03:06;;;;;;;8.68;1.88;;;13.70;99.90;;;;;;4992977;28;20199;-83
2022/11/15 11:05:38;;;;;;;5.63;1.40;;;13.80;99.90;;;;;;4978761;28;20209;-80
2022/11/15 11:08:20;;;;;;;2.03;1.17;;;13.70;99.90;;;;;;4983209;28;20215;-79
2022/11/15 11:10:57;;;;;;;1.70;1.10;;;13.60;99.90;;;;;;4999718;28;20165;-79
2022/11/15 11:13:28;;;;;;;5.82;1.48;;;13.50;99.90;;;;;;4998117;28;20161;-80
2022/11/15 11:16:06;;;;;;;7.38;1.63;;;13.60;99.90;;;;;;4995600;28;20255;-80
2022/11/15 11:18:57;;;;;;;3.00;1.17;;;13.70;99.90;;;;;;4995176;28;20228;-83
2022/11/15 11:21:51;;;;;;;8.05;1.30;;;13.80;99.90;;;;;;4995836;28;20189;-84
2022/11/15 11:24:32;;;;;;;7.07;3.78;;;13.80;99.90;;;;;;4978388;28;20205;-81
2022/11/15 11:27:31;;;;;;;7.82;1.42;;;13.80;99.90;;;;;;4980871;28;20173;-83
2022/11/15 11:30:06;;;;;;;8.50;1.50;;;13.80;99.90;;;;;;4947437;28;20223;-82
2022/11/15 11:33:04;;;;;;;3.83;1.40;;;13.80;99.90;;;;;;4978991;28;20172;-82
2022/11/15 11:35:39;;;;;;;15.23;1.27;;;13.90;99.90;;;;;;4994711;28;20637;-81
2022/11/15 11:38:23;;;;;;;20.83;1.65;;;13.90;99.90;;;;;;5023976;23;20231;-83
2022/11/15 11:41:13;;;;;;;12.93;1.30;;;13.90;99.90;;;;;;5017235;28;20231;-92
2022/11/15 11:43:48;;;;;;;7.07;1.58;;;13.90;99.90;;;;;;5017850;28;20165;-86
2022/11/15 11:46:28;;;;;;;6.13;1.52;;;14.10;99.90;;;;;;5017530;28;20304;-88
2022/11/15 11:49:10;;;;;;;2.35;1.15;;;14.00;99.90;;;;;;5017007;28;20234;-90
2022/11/15 11:51:43;;;;;;;1.65;0.95;;;14.10;99.90;;;;;;5015251;28;20164;-89
2022/11/15 11:54:25;;;;;;;5.35;1.30;;;14.20;99.90;;;;;;5016706;28;20226;-84
2022/11/15 11:56:51;;;;;;;4.35;1.33;;;14.20;99.90;;;;;;5017514;28;20219;-91
2022/11/15 11:59:25;;;;;;;7.25;1.40;;;14.20;99.90;;;;;;5015914;28;20185;-85
2022/11/15 12:01:51;;;;;;;6.55;1.08;;;14.10;99.90;;;;;;5015525;28;20748;-95
2022/11/15 12:04:29;;;;;;;10.27;1.58;;;14.20;99.90;;;;;;5016214;28;20236;-89
2022/11/15 12:06:58;;;;;;;3.63;1.40;;;14.20;99.90;;;;;;5017249;28;20185;-82
2022/11/15 12:10:02;;;;;;;7.60;1.55;;;14.30;99.90;;;;;;5015764;28;20192;-92
2022/11/15 12:12:36;;;;;;;8.35;1.33;;;14.50;99.90;;;;;;5016045;28;20168;-91
2022/11/15 12:15:29;;;;;;;3.72;1.30;;;14.60;99.90;;;;;;5016303;28;20164;-88
2022/11/15 12:17:56;;;;;;;4.82;1.73;;;14.60;99.90;;;;;;5016095;28;20192;-90
2022/11/15 12:20:33;;;;;;;1.60;1.10;;;14.60;99.90;;;;;;5016633;28;20157;-89
2022/11/15 12:23:16;;;;;;;5.00;1.60;;;14.50;99.90;;;;;;5016467;28;20712;-93
2022/11/15 12:26:06;;;;;;;8.30;1.60;;;14.30;99.90;;;;;;5014027;28;20687;-84
2022/11/15 12:28:44;;;;;;;6.47;2.00;;;14.40;99.90;;;;;;5014652;28;20211;-89
2022/11/15 12:31:35;;;;;;;3.13;1.40;;;14.50;99.90;;;;;;5015812;28;20536;-91
2022/11/15 12:34:19;;;;;;;4.50;1.60;;;14.50;99.90;;;;;;5016184;28;20169;-87
2022/11/15 12:36:47;;;;;;;5.40;2.08;;;14.50;99.90;;;;;;5014680;28;20169;-80
2022/11/15 12:39:14;;;;;;;6.88;1.48;;;14.60;99.90;;;;;;5012606;28;20656;-91
2022/11/15 12:42:04;;;;;;;7.70;1.30;;;14.80;99.90;;;;;;5016680;28;20168;-91
2022/11/15 12:44:35;;;;;;;7.97;1.45;;;14.80;99.90;;;;;;5015581;28;20278;-89
2022/11/15 12:47:22;;;;;;;9.65;1.58;;;14.90;99.90;;;;;;5016089;28;20165;-86
2022/11/15 12:49:48;;;;;;;9.85;1.10;;;14.90;99.90;;;;;;5019635;28;20695;-89
2022/11/15 12:52:16;;;;;;;4.43;1.83;;;14.80;99.90;;;;;;5019618;28;20196;-85
2022/11/15 12:54:56;;;;;;;4.40;1.65;;;14.50;99.90;;;;;;5022879;28;20700;-81
2022/11/15 12:57:31;;;;;;;3.72;1.60;;;14.60;99.90;;;;;;5025223;28;20196;-81
2022/11/15 13:00:46;;;;;;;3.58;1.52;;;14.60;99.90;;;;;;5033311;28;20188;-80
2022/11/15 13:03:18;;;;;;;3.42;1.17;;;14.60;99.90;;;;;;5021088;28;20188;-88
2022/11/15 13:05:44;;;;;;;4.80;1.15;;;14.60;99.90;;;;;;5017609;28;20204;-85
2022/11/15 13:08:40;;;;;;;8.52;1.30;;;14.70;99.90;;;;;;5021265;28;20188;-79
2022/11/15 13:11:43;;;;;;;2.15;1.33;;;15.00;99.90;;;;;;5028361;28;20534;-80
2022/11/15 13:14:36;;;;;;;4.72;1.50;;;14.80;99.90;;;;;;5013268;28;20247;-80